West Galveston, Texas
Current Conditions -  °F | °C
As of 4:52 AM on Monday 22 Dec 2014 (Local Time) from KGLS Reporting Station
Broken Clouds Broken Clouds  
Wind Chill: 63°   Ceiling: 4700
Heat Index: 63°   Visibility: 10mi
Dew Point: 61°   Wind: 13mph
Humidity: 93%   Direction: 150°SSE
Pressure: 29.78"   Gusts: NA
Location:  29.2029°N, 94.9576°W
Report Text: KGLS 221052Z AUTO 15011KT 10SM BKN047 17/16 A2978 RMK AO1 SLP085 T01720161
Loading
Personal Weather Stations






























Interactive Weather Map New forecast layout! Learn more

10-Day Weather Forecast

Advertisements
Track Severe Weather on mobile